メインページ
METAR-TAF:

METAR-TAF

空港 :

東京 / 羽田国際空港, 日本

東京国際空港

緯度: 35-33N, 経度: 139-47E, 海抜: 5m

現時点の気象観測

当レポートは34分前の04:30(UTC)に作成
北西の風 7kt
気温 17°C
湿度 100%
気圧 1016 hPa
視程: 6000m
高度300ftの雲はほとんどない
高度400ftの雲は散在している
高度600ftの千切れ雲あり
小雨, 靄

METAR: RJTT 210430Z 32007KT 6000 -RA BR FEW003 SCT004 BKN006 17/17 Q1016 TEMPO 3000 RA BR FEW003 BKN005

時間: 14:04 (05:04 UTC)

予報

当レポートは5時間58分前の23:06(UTC)に作成
予報は21日の 00時(UTC)から 22日の 06時(UTC)まで有効
の風 10kt
視程: 6000m
高度500ftの雲はほとんどない
高度800ftの千切れ雲あり
小雨
21日の 00時(UTC)から 21日の 03時(UTC)まで一時的に
視程: 4000m
小雨, 霧雨, 靄
21日の 03時(UTC)から 21日の 12時(UTC)まで一時的に
視程: 3000m
にわか雨, 靄
21日の 12時(UTC)から 21日の 15時(UTC)まで徐々に
視程: 4000m
弱いにわか雨, 靄
21日の 12時(UTC)から 21日の 21時(UTC)まで一時的に
視程: 3000m
高度300ftの雲はほとんどない
高度500ftの千切れ雲あり
にわか雨, 靄
21日の 21時(UTC)から 22日の 06時(UTC)まで一時的に
視程: 1500m
高度300ftの雲はほとんどない
高度500ftの千切れ雲あり
激しいにわか雨, 靄

TAF: RJTT 202306Z 2100/2206 35010KT 6000 -RA FEW005 BKN008 TEMPO 2100/2103 4000 -RADZ BR TEMPO 2103/2112 3000 SHRA BR BECMG 2112/2115 4000 -SHRA BR TEMPO 2112/2121 3000 SHRA BR FEW003 BKN005 TEMPO 2121/2206 1500 +SHRA BR FEW003 BKN005

4,000以上の空港の気象観測と天気予報(METAR報とTAF報)

利用可能な観測所は地図上に黄色い丸と赤い丸で示す。

丸の上にカーソルを重ねると観測所名を参照できる。

次にクリックすると気象観測と天気予報を参照できる。

マップの切り替え:黒色「×」印の緑ボタンをクリックして拡大、「-」印の緑ボタンをクリックして縮小、緑色の三角印をクリックして隣りの地図に切り替え


METAR-TAF: